Time;durP1;ratioP1;P1;durP2;ratioP2;P2;SDS_P1;SDS_P2;PMS_P1;PMS_P2;Temp;Humidity;BMP_temperature;BMP_pressure;BME280_temperature;BME280_humidity;BME280_pressure;Samples;Min_cycle;Max_cycle;Signal;HPM_P1;HPM_P2
2021/05/31 05:14:19;;;;;;;;;;;;;;;;;;;;;
2021/05/31 05:17:23;;;;;;;;;;;;;;;;;;;;;
2021/05/31 05:20:42;;;;;;;25.98;18.85;;;13.00;89.50;;;;;;6167315;23;20021;-90
2021/05/31 05:27:46;;;;;;;;;;;;;;;;;;;;;
2021/05/31 05:37:17;;;;;;;;;;;;;;;;;;;;;
2021/05/31 06:08:44;;;;;;;;;;;;;;;;;;;;;
2021/05/31 14:39:39;;;;;;;4.90;3.55;;;22.20;50.60;;;;;;6164182;23;20025;-82
2021/05/31 14:42:25;;;;;;;3.95;3.55;;;22.10;50.30;;;;;;6155573;23;20040;-82
2021/05/31 14:44:52;;;;;;;3.53;3.10;;;22.20;50.30;;;;;;6155278;23;20080;-83
2021/05/31 14:47:37;;;;;;;3.58;2.88;;;22.20;49.70;;;;;;6155537;23;20012;-81
2021/05/31 14:50:18;;;;;;;3.15;2.78;;;22.20;49.90;;;;;;6154152;23;20002;-84
2021/05/31 14:53:34;;;;;;;3.63;2.63;;;22.20;49.60;;;;;;6157006;23;20040;-82
2021/05/31 14:56:03;;;;;;;3.15;2.85;;;22.20;48.50;;;;;;6142321;23;20073;-83
2021/05/31 14:59:10;;;;;;;3.22;2.75;;;22.30;47.30;;;;;;6153945;23;20015;-85
2021/05/31 15:01:40;;;;;;;3.08;2.70;;;22.40;43.10;;;;;;6152930;23;20010;-82
2021/05/31 15:04:11;;;;;;;3.25;2.15;;;22.40;44.90;;;;;;6155571;23;20323;-83
2021/05/31 15:06:38;;;;;;;3.50;2.60;;;22.40;45.80;;;;;;6156178;23;20005;-83
2021/05/31 15:09:16;;;;;;;3.20;2.65;;;22.40;45.20;;;;;;6157314;23;20084;-83
2021/05/31 15:11:41;;;;;;;3.65;3.15;;;22.40;44.00;;;;;;6129862;23;20006;-84
2021/05/31 15:14:15;;;;;;;3.58;2.60;;;22.40;43.50;;;;;;6155631;23;20029;-82
2021/05/31 15:16:44;;;;;;;5.53;3.05;;;22.40;45.00;;;;;;6154168;23;20394;-86
2021/05/31 15:19:10;;;;;;;4.90;3.45;;;22.30;44.50;;;;;;6154673;23;20040;-84
2021/05/31 15:21:46;;;;;;;3.00;2.70;;;22.40;43.60;;;;;;6157188;23;20060;-83
2021/05/31 15:24:12;;;;;;;3.53;3.22;;;22.40;44.80;;;;;;6157354;23;19998;-82
2021/05/31 15:26:38;;;;;;;3.17;2.88;;;22.40;44.90;;;;;;6156989;23;20412;-82
2021/05/31 15:29:04;;;;;;;4.35;3.40;;;22.30;45.60;;;;;;6154516;23;20004;-83
2021/05/31 15:31:30;;;;;;;4.10;3.58;;;22.30;45.80;;;;;;6129586;23;20005;-84
2021/05/31 15:33:56;;;;;;;3.97;3.30;;;22.40;46.40;;;;;;6154871;23;20363;-84
2021/05/31 15:36:22;;;;;;;4.63;3.10;;;22.40;46.40;;;;;;6129948;23;20104;-83
2021/05/31 15:38:47;;;;;;;4.10;3.45;;;22.50;46.40;;;;;;6105602;23;20013;-82
2021/05/31 15:41:18;;;;;;;3.83;3.08;;;22.40;46.40;;;;;;6155344;23;20052;-83
2021/05/31 15:43:44;;;;;;;5.15;3.83;;;22.50;46.90;;;;;;6157048;23;20084;-84
2021/05/31 15:46:14;;;;;;;3.92;3.50;;;22.40;47.60;;;;;;6154990;23;20005;-83
2021/05/31 15:48:42;;;;;;;4.10;3.70;;;22.40;48.10;;;;;;6157079;23;20009;-83
2021/05/31 15:51:13;;;;;;;5.63;3.40;;;22.40;48.60;;;;;;6155438;23;20006;-83
2021/05/31 15:53:40;;;;;;;4.78;3.55;;;22.40;49.40;;;;;;6155898;23;20028;-82
2021/05/31 15:56:09;;;;;;;4.45;3.45;;;22.40;49.00;;;;;;6155202;23;20002;-83
2021/05/31 15:58:37;;;;;;;3.58;3.25;;;22.40;50.00;;;;;;6156619;23;20097;-83
2021/05/31 16:01:09;;;;;;;5.28;4.15;;;22.40;49.70;;;;;;6154968;23;20060;-83
2021/05/31 16:03:38;;;;;;;6.05;4.30;;;22.50;49.30;;;;;;6155338;23;20097;-86
2021/05/31 16:06:26;;;;;;;4.72;4.15;;;22.50;49.50;;;;;;6156357;23;20424;-83
2021/05/31 16:08:57;;;;;;;4.20;3.53;;;22.50;48.30;;;;;;6155179;23;20431;-84
2021/05/31 16:11:23;;;;;;;4.55;4.15;;;22.60;48.90;;;;;;6130985;23;20045;-83
2021/05/31 16:13:52;;;;;;;5.03;4.53;;;22.60;48.70;;;;;;6154905;23;20422;-84
2021/05/31 16:16:18;;;;;;;5.70;4.00;;;22.60;48.60;;;;;;6155559;23;20009;-85
2021/05/31 16:18:46;;;;;;;5.60;3.85;;;22.60;48.60;;;;;;6156475;23;20010;-85
2021/05/31 16:21:12;;;;;;;4.97;4.15;;;22.60;48.70;;;;;;6155669;23;20001;-84
2021/05/31 16:26:48;;;;;;;4.30;3.80;;;22.60;48.70;;;;;;6151373;23;20157;-84
2021/05/31 16:29:21;;;;;;;7.25;3.80;;;22.60;48.80;;;;;;6156445;23;20097;-85
2021/05/31 16:32:06;;;;;;;;;;;;;;;;;;;;;
2021/05/31 16:34:44;;;;;;;4.35;3.60;;;22.60;48.60;;;;;;6156598;23;20092;-86
2021/05/31 16:37:30;;;;;;;3.95;3.30;;;22.60;48.90;;;;;;6155108;23;20024;-85
2021/05/31 16:40:01;;;;;;;5.43;3.50;;;22.60;49.00;;;;;;6131703;23;20380;-85
2021/05/31 16:42:35;;;;;;;3.75;3.28;;;22.50;48.70;;;;;;6157034;23;20009;-86
2021/05/31 16:45:15;;;;;;;3.85;2.60;;;22.60;47.20;;;;;;6129941;23;20016;-87
2021/05/31 16:47:53;;;;;;;3.83;3.25;;;22.60;47.40;;;;;;6155975;23;20085;-84
2021/05/31 16:50:23;;;;;;;3.88;3.50;;;22.60;47.70;;;;;;6156533;23;20477;-85
2021/05/31 16:53:00;;;;;;;;;;;22.60;47.70;;;;;;6157850;23;20005;-85
2021/05/31 16:55:36;;;;;;;4.78;3.20;;;22.60;47.80;;;;;;6156318;23;19951;-84
2021/05/31 16:58:11;;;;;;;4.05;3.10;;;22.50;48.00;;;;;;6155711;23;20016;-85
2021/05/31 17:01:12;;;;;;;;;;;;;;;;;;;;;
2021/05/31 17:03:40;;;;;;;5.63;2.92;;;22.60;46.90;;;;;;6157473;23;20470;-83
2021/05/31 17:06:11;;;;;;;5.43;3.05;;;22.50;46.90;;;;;;6131696;23;20006;-85
2021/05/31 17:08:37;;;;;;;2.97;2.60;;;22.50;46.60;;;;;;6156974;23;20049;-87
2021/05/31 17:19:22;;;;;;;2.53;2.25;;;22.50;45.70;;;;;;6156938;23;20029;-84
2021/05/31 17:21:48;;;;;;;5.70;2.22;;;22.50;45.10;;;;;;6156727;23;20002;-85
2021/05/31 17:24:14;;;;;;;4.68;2.38;;;22.50;43.90;;;;;;6155478;23;20006;-84
2021/05/31 17:26:40;;;;;;;2.78;1.90;;;22.40;43.80;;;;;;6155794;23;20008;-85
2021/05/31 17:29:11;;;;;;;4.05;2.30;;;22.40;44.60;;;;;;6155345;23;20009;-84
2021/05/31 17:34:06;;;;;;;3.55;2.20;;;22.40;43.00;;;;;;6156311;23;20012;-85
2021/05/31 17:36:32;;;;;;;3.63;2.55;;;22.40;43.10;;;;;;6155952;23;20002;-84
2021/05/31 17:39:05;;;;;;;2.40;2.20;;;22.30;42.90;;;;;;6153904;23;20338;-84
2021/05/31 17:41:52;;;;;;;3.63;2.10;;;22.30;43.50;;;;;;6151374;23;20024;-84
2021/05/31 17:44:25;;;;;;;3.67;1.85;;;22.30;42.60;;;;;;6150613;23;20144;-84
2021/05/31 17:46:54;;;;;;;2.45;1.73;;;22.30;41.70;;;;;;6152693;23;20334;-85
2021/05/31 17:49:30;;;;;;;2.35;1.63;;;22.20;41.60;;;;;;6153420;23;20008;-84
2021/05/31 17:52:05;;;;;;;2.42;1.80;;;22.20;41.90;;;;;;6152885;23;20108;-85
2021/05/31 17:55:04;;;;;;;;;;;;;;;;;;;;;
2021/05/31 17:57:50;;;;;;;1.85;1.70;;;22.10;41.60;;;;;;6153731;23;20100;-85
2021/05/31 18:00:26;;;;;;;2.78;1.90;;;22.10;42.70;;;;;;6155469;23;20328;-84
2021/05/31 18:03:02;;;;;;;;;;;;;;;;;;;;;
2021/05/31 18:05:36;;;;;;;2.33;1.90;;;21.90;43.30;;;;;;6155754;23;20082;-85
2021/05/31 18:08:26;;;;;;;2.30;1.67;;;21.90;43.50;;;;;;6154286;23;20446;-85
2021/05/31 18:10:54;;;;;;;3.20;2.28;;;21.90;43.90;;;;;;6154394;23;20081;-84
2021/05/31 18:13:33;;;;;;;2.90;2.00;;;21.90;42.80;;;;;;6153305;23;20010;-84
2021/05/31 18:15:59;;;;;;;2.92;2.00;;;21.80;43.10;;;;;;6153490;23;20432;-83
2021/05/31 18:19:06;;;;;;;3.17;2.00;;;21.80;43.30;;;;;;6155545;23;20128;-84
2021/05/31 18:21:53;;;;;;;;;;;;;;;;;;;;;
2021/05/31 18:24:25;;;;;;;4.00;2.13;;;21.70;43.00;;;;;;6155265;23;20093;-86
2021/05/31 18:27:51;;;;;;;2.35;1.80;;;21.70;43.10;;;;;;6132214;23;20005;-91
2021/05/31 18:34:25;;;;;;;;;;;;;;;;;;;;;
2021/05/31 18:37:30;;;;;;;2.22;1.90;;;21.50;42.90;;;;;;6072213;23;20075;-84
2021/05/31 21:23:34;;;;;;;;;;;;;;;;;;;;;
2021/05/31 21:33:50;;;;;;;;;;;;;;;;;;;;;
2021/05/31 21:37:00;;;;;;;;;;;;;;;;;;;;;
2021/05/31 21:47:35;;;;;;;2.85;2.20;;;17.40;54.70;;;;;;6098089;23;20094;-91
2021/05/31 21:50:53;;;;;;;;;;;;;;;;;;;;;
2021/05/31 21:53:56;;;;;;;;;;;;;;;;;;;;;
2021/05/31 21:59:54;;;;;;;;;;;;;;;;;;;;;
2021/05/31 22:34:40;;;;;;;;;;;;;;;;;;;;;
2021/05/31 23:19:13;;;;;;;5.32;2.50;;;16.40;56.60;;;;;;6322072;22;20012;-91
2021/05/31 23:21:57;;;;;;;5.10;2.80;;;16.40;56.70;;;;;;6321442;22;19995;-91
2021/05/31 23:25:07;;;;;;;;;;;;;;;;;;;;;
2021/05/31 23:28:23;;;;;;;5.15;2.80;;;16.30;56.70;;;;;;6291437;22;20003;-90
2021/05/31 23:31:47;;;;;;;;;;;;;;;;;;;;;
2021/05/31 23:42:11;;;;;;;;;;;;;;;;;;;;;
2021/05/31 23:44:55;;;;;;;;;;;;;;;;;;;;;
2021/05/31 23:47:57;;;;;;;;;;;;;;;;;;;;;
2021/05/31 23:57:33;;;;;;;;;;;;;;;;;;;;;
